sensor_id;sensor_type;location;lat;lon;timestamp;pressure;altitude;pressure_sealevel;temperature;humidity
22688;BME280;11511;51.514;7.080;2023-09-30T07:15:30;102237.38;;;11.71;100.00
22688;BME280;11511;51.514;7.080;2023-09-30T07:17:56;102237.38;;;11.73;100.00
22688;BME280;11511;51.514;7.080;2023-09-30T07:20:21;102231.03;;;11.84;100.00
22688;BME280;11511;51.514;7.080;2023-09-30T07:22:48;102236.19;;;11.94;100.00
22688;BME280;11511;51.514;7.080;2023-09-30T07:25:13;102249.28;;;12.00;100.00
22688;BME280;11511;51.514;7.080;2023-09-30T07:27:46;102255.19;;;12.14;100.00
22688;BME280;11511;51.514;7.080;2023-09-30T07:30:12;102258.38;;;12.33;100.00
22688;BME280;11511;51.514;7.080;2023-09-30T07:32:41;102260.94;;;12.37;100.00
22688;BME280;11511;51.514;7.080;2023-09-30T07:35:07;102275.63;;;12.55;100.00
22688;BME280;11511;51.514;7.080;2023-09-30T07:37:33;102283.28;;;12.69;100.00
22688;BME280;11511;51.514;7.080;2023-09-30T07:39:58;102286.72;;;12.74;100.00
22688;BME280;11511;51.514;7.080;2023-09-30T07:42:24;102287.13;;;12.99;100.00
22688;BME280;11511;51.514;7.080;2023-09-30T07:44:50;102282.38;;;13.16;100.00
22688;BME280;11511;51.514;7.080;2023-09-30T07:47:15;102293.78;;;13.19;100.00
22688;BME280;11511;51.514;7.080;2023-09-30T07:49:40;102299.75;;;13.29;100.00
22688;BME280;11511;51.514;7.080;2023-09-30T07:52:06;102303.09;;;13.39;100.00
22688;BME280;11511;51.514;7.080;2023-09-30T07:54:31;102304.63;;;13.49;100.00
22688;BME280;11511;51.514;7.080;2023-09-30T07:56:57;102312.09;;;13.70;100.00
22688;BME280;11511;51.514;7.080;2023-09-30T07:59:22;102317.63;;;13.98;100.00
22688;BME280;11511;51.514;7.080;2023-09-30T08:01:48;102311.91;;;14.16;100.00
22688;BME280;11511;51.514;7.080;2023-09-30T08:04:13;102312.31;;;14.35;100.00
22688;BME280;11511;51.514;7.080;2023-09-30T08:06:38;102320.06;;;14.44;100.00
22688;BME280;11511;51.514;7.080;2023-09-30T08:09:04;102322.44;;;14.55;100.00
22688;BME280;11511;51.514;7.080;2023-09-30T08:11:35;102321.78;;;14.47;100.00
22688;BME280;11511;51.514;7.080;2023-09-30T08:14:03;102325.78;;;14.62;100.00
22688;BME280;11511;51.514;7.080;2023-09-30T08:16:32;102335.34;;;14.69;100.00
22688;BME280;11511;51.514;7.080;2023-09-30T08:18:57;102339.50;;;14.77;100.00
22688;BME280;11511;51.514;7.080;2023-09-30T08:21:23;102343.19;;;14.73;100.00
22688;BME280;11511;51.514;7.080;2023-09-30T08:23:48;102348.97;;;14.87;100.00
22688;BME280;11511;51.514;7.080;2023-09-30T08:26:13;102355.84;;;14.96;100.00
22688;BME280;11511;51.514;7.080;2023-09-30T08:28:39;102357.06;;;15.15;100.00
22688;BME280;11511;51.514;7.080;2023-09-30T08:31:05;102352.34;;;15.27;100.00
22688;BME280;11511;51.514;7.080;2023-09-30T08:33:31;102373.59;;;15.57;100.00
22688;BME280;11511;51.514;7.080;2023-09-30T08:36:02;102390.69;;;15.78;100.00
22688;BME280;11511;51.514;7.080;2023-09-30T08:38:31;102389.78;;;15.79;100.00
22688;BME280;11511;51.514;7.080;2023-09-30T08:40:57;102381.00;;;15.76;100.00
22688;BME280;11511;51.514;7.080;2023-09-30T08:43:24;102375.13;;;15.94;100.00
22688;BME280;11511;51.514;7.080;2023-09-30T08:45:53;102359.69;;;16.07;100.00
22688;BME280;11511;51.514;7.080;2023-09-30T08:48:20;102347.69;;;15.94;100.00
22688;BME280;11511;51.514;7.080;2023-09-30T08:50:45;102328.72;;;16.32;100.00
22688;BME280;11511;51.514;7.080;2023-09-30T08:53:14;102291.81;;;16.74;100.00
22688;BME280;11511;51.514;7.080;2023-09-30T08:55:41;102259.50;;;16.85;100.00
22688;BME280;11511;51.514;7.080;2023-09-30T08:58:09;102237.97;;;18.25;100.00
22688;BME280;11511;51.514;7.080;2023-09-30T09:00:35;102203.63;;;18.58;100.00
22688;BME280;11511;51.514;7.080;2023-09-30T09:03:00;102192.31;;;19.84;100.00
22688;BME280;11511;51.514;7.080;2023-09-30T09:05:26;102188.72;;;20.37;100.00
22688;BME280;11511;51.514;7.080;2023-09-30T09:07:51;102184.84;;;21.56;100.00
22688;BME280;11511;51.514;7.080;2023-09-30T09:10:16;102177.81;;;23.28;100.00
22688;BME280;11511;51.514;7.080;2023-09-30T09:12:42;102170.75;;;23.54;100.00
22688;BME280;11511;51.514;7.080;2023-09-30T09:15:20;102172.41;;;26.86;100.00
22688;BME280;11511;51.514;7.080;2023-09-30T09:17:46;102177.75;;;22.59;100.00
22688;BME280;11511;51.514;7.080;2023-09-30T09:20:16;102171.06;;;24.54;100.00
22688;BME280;11511;51.514;7.080;2023-09-30T09:22:46;102165.97;;;25.01;100.00
22688;BME280;11511;51.514;7.080;2023-09-30T09:25:12;102170.56;;;22.59;100.00
22688;BME280;11511;51.514;7.080;2023-09-30T09:27:37;102187.53;;;25.01;100.00
22688;BME280;11511;51.514;7.080;2023-09-30T09:30:23;102176.59;;;26.10;100.00
22688;BME280;11511;51.514;7.080;2023-09-30T09:32:58;102180.41;;;24.23;100.00
22688;BME280;11511;51.514;7.080;2023-09-30T09:35:23;102186.44;;;25.03;100.00
22688;BME280;11511;51.514;7.080;2023-09-30T09:38:01;102176.94;;;26.06;100.00
22688;BME280;11511;51.514;7.080;2023-09-30T09:40:38;102176.88;;;26.29;94.95
22688;BME280;11511;51.514;7.080;2023-09-30T09:43:06;102176.56;;;25.27;100.00
22688;BME280;11511;51.514;7.080;2023-09-30T09:45:36;102172.34;;;28.47;85.79
22688;BME280;11511;51.514;7.080;2023-09-30T09:48:03;102168.63;;;28.39;82.86
22688;BME280;11511;51.514;7.080;2023-09-30T09:50:29;102179.28;;;27.23;81.50
22688;BME280;11511;51.514;7.080;2023-09-30T09:52:58;102178.84;;;27.07;83.54
22688;BME280;11511;51.514;7.080;2023-09-30T09:55:25;102171.72;;;27.06;81.88
22688;BME280;11511;51.514;7.080;2023-09-30T09:57:51;102179.75;;;28.04;74.15
22688;BME280;11511;51.514;7.080;2023-09-30T10:00:19;102172.19;;;28.39;70.42
22688;BME280;11511;51.514;7.080;2023-09-30T10:02:45;102190.63;;;29.06;63.99
22688;BME280;11511;51.514;7.080;2023-09-30T10:05:13;102180.63;;;28.97;68.78
22688;BME280;11511;51.514;7.080;2023-09-30T10:08:01;102192.69;;;29.23;63.78
22688;BME280;11511;51.514;7.080;2023-09-30T10:10:28;102197.88;;;28.03;68.36
22688;BME280;11511;51.514;7.080;2023-09-30T10:12:54;102197.75;;;28.46;65.19
22688;BME280;11511;51.514;7.080;2023-09-30T10:17:58;102212.50;;;28.33;67.42
22688;BME280;11511;51.514;7.080;2023-09-30T10:20:31;102215.28;;;25.26;79.46
22688;BME280;11511;51.514;7.080;2023-09-30T10:25:46;102209.56;;;28.66;61.35
22688;BME280;11511;51.514;7.080;2023-09-30T10:28:38;102200.78;;;29.63;63.02
22688;BME280;11511;51.514;7.080;2023-09-30T10:31:30;102199.25;;;29.21;61.94
22688;BME280;11511;51.514;7.080;2023-09-30T10:36:35;102216.66;;;29.87;57.76
22688;BME280;11511;51.514;7.080;2023-09-30T10:39:03;102218.97;;;30.87;54.97
22688;BME280;11511;51.514;7.080;2023-09-30T10:46:51;102209.97;;;28.61;65.15
22688;BME280;11511;51.514;7.080;2023-09-30T10:49:30;102221.25;;;32.35;49.42
22688;BME280;11511;51.514;7.080;2023-09-30T10:51:58;102223.41;;;30.03;53.74
22688;BME280;11511;51.514;7.080;2023-09-30T10:54:32;102223.34;;;28.33;60.49
22688;BME280;11511;51.514;7.080;2023-09-30T10:56:59;102204.34;;;25.77;68.59
22688;BME280;11511;51.514;7.080;2023-09-30T10:59:27;102197.41;;;27.01;65.90
22688;BME280;11511;51.514;7.080;2023-09-30T11:01:56;102200.75;;;28.74;57.23
22688;BME280;11511;51.514;7.080;2023-09-30T11:04:21;102190.75;;;29.05;54.66
22688;BME280;11511;51.514;7.080;2023-09-30T11:06:47;102194.63;;;29.42;53.95
22688;BME280;11511;51.514;7.080;2023-09-30T11:09:17;102190.56;;;30.52;57.43
22688;BME280;11511;51.514;7.080;2023-09-30T11:11:44;102195.22;;;30.33;51.37
22688;BME280;11511;51.514;7.080;2023-09-30T11:16:43;102206.47;;;28.50;52.62
22688;BME280;11511;51.514;7.080;2023-09-30T11:19:09;102180.22;;;28.71;53.81
22688;BME280;11511;51.514;7.080;2023-09-30T11:21:35;102175.47;;;29.04;53.57
22688;BME280;11511;51.514;7.080;2023-09-30T11:24:01;102163.78;;;29.53;52.34
22688;BME280;11511;51.514;7.080;2023-09-30T11:26:33;102170.47;;;29.58;49.58
22688;BME280;11511;51.514;7.080;2023-09-30T11:29:13;102171.25;;;29.20;48.39
22688;BME280;11511;51.514;7.080;2023-09-30T11:31:40;102159.28;;;31.13;46.91
22688;BME280;11511;51.514;7.080;2023-09-30T11:34:06;102157.72;;;28.29;50.50
22688;BME280;11511;51.514;7.080;2023-09-30T11:36:34;102158.94;;;28.04;51.03
22688;BME280;11511;51.514;7.080;2023-09-30T11:39:00;102164.88;;;28.60;51.28
22688;BME280;11511;51.514;7.080;2023-09-30T11:41:42;102165.09;;;28.48;49.82
22688;BME280;11511;51.514;7.080;2023-09-30T11:44:10;102165.63;;;27.68;51.60
22688;BME280;11511;51.514;7.080;2023-09-30T11:46:56;102167.81;;;25.84;57.55
22688;BME280;11511;51.514;7.080;2023-09-30T11:52:08;102147.19;;;23.58;83.87
22688;BME280;11511;51.514;7.080;2023-09-30T11:54:39;102158.44;;;21.94;96.67
22688;BME280;11511;51.514;7.080;2023-09-30T11:57:07;102150.63;;;22.63;100.00
22688;BME280;11511;51.514;7.080;2023-09-30T11:59:39;102147.63;;;22.11;100.00
22688;BME280;11511;51.514;7.080;2023-09-30T12:02:08;102151.66;;;21.27;100.00
22688;BME280;11511;51.514;7.080;2023-09-30T12:04:37;102144.47;;;21.43;100.00
22688;BME280;11511;51.514;7.080;2023-09-30T12:07:03;102144.19;;;22.52;100.00
22688;BME280;11511;51.514;7.080;2023-09-30T12:09:29;102140.06;;;22.32;100.00
22688;BME280;11511;51.514;7.080;2023-09-30T12:11:55;102131.91;;;22.90;100.00
22688;BME280;11511;51.514;7.080;2023-09-30T12:14:23;102137.06;;;21.33;100.00
22688;BME280;11511;51.514;7.080;2023-09-30T12:16:49;102129.03;;;22.65;100.00
22688;BME280;11511;51.514;7.080;2023-09-30T12:19:18;102123.47;;;22.11;100.00
22688;BME280;11511;51.514;7.080;2023-09-30T12:21:45;102120.31;;;22.61;100.00
22688;BME280;11511;51.514;7.080;2023-09-30T12:24:12;102120.84;;;21.50;100.00
22688;BME280;11511;51.514;7.080;2023-09-30T12:26:44;102097.44;;;23.90;92.02
22688;BME280;11511;51.514;7.080;2023-09-30T12:29:17;102106.00;;;25.34;72.91
22688;BME280;11511;51.514;7.080;2023-09-30T12:31:46;102092.94;;;24.16;86.09
22688;BME280;11511;51.514;7.080;2023-09-30T12:34:12;102101.75;;;23.93;91.33
22688;BME280;11511;51.514;7.080;2023-09-30T12:36:38;102096.22;;;25.20;83.71
22688;BME280;11511;51.514;7.080;2023-09-30T12:39:04;102096.47;;;25.65;80.87
22688;BME280;11511;51.514;7.080;2023-09-30T12:41:36;102105.91;;;25.46;79.97
22688;BME280;11511;51.514;7.080;2023-09-30T12:44:02;102099.88;;;25.19;78.40
22688;BME280;11511;51.514;7.080;2023-09-30T12:46:27;102107.78;;;26.60;64.17
22688;BME280;11511;51.514;7.080;2023-09-30T12:48:52;102113.53;;;25.65;75.03
22688;BME280;11511;51.514;7.080;2023-09-30T12:51:18;102116.97;;;24.45;73.97
22688;BME280;11511;51.514;7.080;2023-09-30T12:53:44;102109.88;;;24.44;80.92
22688;BME280;11511;51.514;7.080;2023-09-30T12:56:10;102098.69;;;24.24;88.34
22688;BME280;11511;51.514;7.080;2023-09-30T12:58:35;102099.56;;;24.25;81.33
22688;BME280;11511;51.514;7.080;2023-09-30T13:01:00;102091.34;;;24.01;88.60
22688;BME280;11511;51.514;7.080;2023-09-30T13:03:26;102094.06;;;23.35;92.51
22688;BME280;11511;51.514;7.080;2023-09-30T13:05:51;102100.72;;;22.03;93.23
22688;BME280;11511;51.514;7.080;2023-09-30T13:08:17;102087.59;;;22.69;94.15
22688;BME280;11511;51.514;7.080;2023-09-30T13:10:42;102091.34;;;22.10;100.00
22688;BME280;11511;51.514;7.080;2023-09-30T13:13:09;102093.63;;;22.44;97.39
22688;BME280;11511;51.514;7.080;2023-09-30T13:15:34;102083.06;;;21.54;100.00
22688;BME280;11511;51.514;7.080;2023-09-30T13:17:59;102084.09;;;23.89;93.65
22688;BME280;11511;51.514;7.080;2023-09-30T13:20:25;102077.72;;;23.38;94.56
22688;BME280;11511;51.514;7.080;2023-09-30T13:22:50;102086.94;;;22.80;100.00
22688;BME280;11511;51.514;7.080;2023-09-30T13:25:16;102071.22;;;22.03;100.00
22688;BME280;11511;51.514;7.080;2023-09-30T13:27:41;102059.28;;;21.48;100.00
22688;BME280;11511;51.514;7.080;2023-09-30T13:30:08;102058.22;;;21.21;100.00
22688;BME280;11511;51.514;7.080;2023-09-30T13:32:34;102061.78;;;21.51;100.00
22688;BME280;11511;51.514;7.080;2023-09-30T13:35:06;102062.28;;;21.28;100.00
22688;BME280;11511;51.514;7.080;2023-09-30T13:37:32;102054.03;;;21.15;100.00
22688;BME280;11511;51.514;7.080;2023-09-30T13:40:03;102051.31;;;21.01;100.00
22688;BME280;11511;51.514;7.080;2023-09-30T13:42:34;102044.81;;;21.21;100.00
22688;BME280;11511;51.514;7.080;2023-09-30T13:44:59;102040.47;;;22.92;100.00
22688;BME280;11511;51.514;7.080;2023-09-30T13:47:25;102046.09;;;22.18;100.00
22688;BME280;11511;51.514;7.080;2023-09-30T13:49:52;102051.28;;;22.35;100.00
22688;BME280;11511;51.514;7.080;2023-09-30T13:52:17;102050.47;;;23.29;100.00
22688;BME280;11511;51.514;7.080;2023-09-30T13:54:42;102053.81;;;22.93;100.00
22688;BME280;11511;51.514;7.080;2023-09-30T13:57:08;102054.31;;;24.05;100.00
22688;BME280;11511;51.514;7.080;2023-09-30T13:59:34;102041.38;;;23.72;100.00
22688;BME280;11511;51.514;7.080;2023-09-30T14:02:00;102040.31;;;23.47;100.00
22688;BME280;11511;51.514;7.080;2023-09-30T14:04:25;102049.06;;;23.51;96.55
22688;BME280;11511;51.514;7.080;2023-09-30T14:06:51;102045.94;;;22.90;100.00
22688;BME280;11511;51.514;7.080;2023-09-30T14:09:16;102041.78;;;21.57;100.00
22688;BME280;11511;51.514;7.080;2023-09-30T14:11:42;102041.31;;;21.35;100.00
22688;BME280;11511;51.514;7.080;2023-09-30T14:14:07;102044.81;;;21.05;100.00
22688;BME280;11511;51.514;7.080;2023-09-30T14:16:35;102044.97;;;20.06;100.00
22688;BME280;11511;51.514;7.080;2023-09-30T14:19:01;102045.34;;;19.99;100.00
22688;BME280;11511;51.514;7.080;2023-09-30T14:21:26;102031.34;;;20.59;100.00
22688;BME280;11511;51.514;7.080;2023-09-30T14:23:51;102039.81;;;20.99;100.00
22688;BME280;11511;51.514;7.080;2023-09-30T14:26:17;102027.44;;;21.28;100.00
22688;BME280;11511;51.514;7.080;2023-09-30T14:28:42;102028.66;;;21.22;100.00
22688;BME280;11511;51.514;7.080;2023-09-30T14:31:07;102030.81;;;21.00;100.00
22688;BME280;11511;51.514;7.080;2023-09-30T14:33:33;102021.16;;;20.66;100.00
22688;BME280;11511;51.514;7.080;2023-09-30T14:35:59;102015.31;;;20.75;100.00
22688;BME280;11511;51.514;7.080;2023-09-30T14:38:24;102011.47;;;21.41;100.00
22688;BME280;11511;51.514;7.080;2023-09-30T14:40:50;102011.69;;;22.24;100.00
22688;BME280;11511;51.514;7.080;2023-09-30T14:43:16;102018.53;;;21.57;100.00
22688;BME280;11511;51.514;7.080;2023-09-30T14:45:42;102014.88;;;20.67;100.00
22688;BME280;11511;51.514;7.080;2023-09-30T14:48:08;102010.78;;;20.60;100.00
22688;BME280;11511;51.514;7.080;2023-09-30T14:50:34;102009.84;;;20.12;100.00
22688;BME280;11511;51.514;7.080;2023-09-30T14:53:02;102015.25;;;19.95;100.00
22688;BME280;11511;51.514;7.080;2023-09-30T14:55:27;101997.84;;;19.53;100.00
22688;BME280;11511;51.514;7.080;2023-09-30T14:57:55;102009.66;;;19.67;100.00
22688;BME280;11511;51.514;7.080;2023-09-30T15:00:20;102003.59;;;19.63;100.00
22688;BME280;11511;51.514;7.080;2023-09-30T15:02:47;102002.06;;;19.75;100.00
22688;BME280;11511;51.514;7.080;2023-09-30T15:05:13;101991.75;;;19.50;100.00
22688;BME280;11511;51.514;7.080;2023-09-30T15:07:38;101987.38;;;19.99;100.00
22688;BME280;11511;51.514;7.080;2023-09-30T15:10:05;101997.97;;;20.34;100.00
22688;BME280;11511;51.514;7.080;2023-09-30T15:12:30;101994.84;;;20.43;100.00
22688;BME280;11511;51.514;7.080;2023-09-30T15:14:56;101992.78;;;20.31;100.00
22688;BME280;11511;51.514;7.080;2023-09-30T15:17:22;101997.47;;;19.61;100.00
22688;BME280;11511;51.514;7.080;2023-09-30T15:19:47;101989.03;;;19.51;100.00
22688;BME280;11511;51.514;7.080;2023-09-30T15:22:12;101990.91;;;19.32;100.00
22688;BME280;11511;51.514;7.080;2023-09-30T15:24:38;101986.69;;;18.92;100.00
22688;BME280;11511;51.514;7.080;2023-09-30T15:27:03;101988.50;;;18.91;100.00
22688;BME280;11511;51.514;7.080;2023-09-30T15:29:28;101983.38;;;18.51;100.00
22688;BME280;11511;51.514;7.080;2023-09-30T15:31:54;101993.00;;;18.35;100.00
22688;BME280;11511;51.514;7.080;2023-09-30T15:34:19;101994.13;;;18.31;100.00
22688;BME280;11511;51.514;7.080;2023-09-30T15:36:44;101997.13;;;18.04;100.00
22688;BME280;11511;51.514;7.080;2023-09-30T15:39:10;101998.47;;;18.13;100.00
22688;BME280;11511;51.514;7.080;2023-09-30T15:41:35;101997.72;;;17.90;100.00
22688;BME280;11511;51.514;7.080;2023-09-30T15:44:00;101993.59;;;17.83;100.00
22688;BME280;11511;51.514;7.080;2023-09-30T15:46:26;101990.72;;;17.69;100.00
22688;BME280;11511;51.514;7.080;2023-09-30T15:48:51;101995.78;;;17.53;100.00
22688;BME280;11511;51.514;7.080;2023-09-30T15:51:16;101989.59;;;17.33;100.00
22688;BME280;11511;51.514;7.080;2023-09-30T15:53:42;101992.38;;;17.30;100.00
22688;BME280;11511;51.514;7.080;2023-09-30T15:56:07;101996.91;;;17.27;100.00
22688;BME280;11511;51.514;7.080;2023-09-30T15:58:32;101990.31;;;17.16;100.00
22688;BME280;11511;51.514;7.080;2023-09-30T16:00:58;102002.53;;;17.00;100.00
22688;BME280;11511;51.514;7.080;2023-09-30T16:03:23;102004.44;;;16.96;100.00
22688;BME280;11511;51.514;7.080;2023-09-30T16:05:49;102002.84;;;16.70;100.00
22688;BME280;11511;51.514;7.080;2023-09-30T16:08:15;102002.84;;;16.70;100.00
22688;BME280;11511;51.514;7.080;2023-09-30T16:10:40;101996.84;;;16.65;100.00
22688;BME280;11511;51.514;7.080;2023-09-30T16:13:07;101990.25;;;16.52;100.00
22688;BME280;11511;51.514;7.080;2023-09-30T16:15:33;101985.78;;;16.52;100.00
22688;BME280;11511;51.514;7.080;2023-09-30T16:18:00;101989.81;;;16.41;100.00
22688;BME280;11511;51.514;7.080;2023-09-30T16:20:25;101984.91;;;16.30;100.00
22688;BME280;11511;51.514;7.080;2023-09-30T16:22:51;102000.31;;;16.20;100.00
22688;BME280;11511;51.514;7.080;2023-09-30T16:25:17;102004.72;;;15.98;100.00
22688;BME280;11511;51.514;7.080;2023-09-30T16:27:43;102004.31;;;15.85;100.00
22688;BME280;11511;51.514;7.080;2023-09-30T16:30:10;102006.94;;;15.61;100.00
22688;BME280;11511;51.514;7.080;2023-09-30T16:32:36;102017.97;;;15.48;100.00
22688;BME280;11511;51.514;7.080;2023-09-30T16:35:04;102015.72;;;15.36;100.00
22688;BME280;11511;51.514;7.080;2023-09-30T16:37:29;102018.56;;;15.32;100.00
22688;BME280;11511;51.514;7.080;2023-09-30T16:39:55;102020.66;;;15.22;100.00
22688;BME280;11511;51.514;7.080;2023-09-30T16:42:20;102023.50;;;15.16;100.00
22688;BME280;11511;51.514;7.080;2023-09-30T16:44:45;102029.38;;;14.99;100.00
22688;BME280;11511;51.514;7.080;2023-09-30T16:47:11;102035.19;;;14.82;100.00
22688;BME280;11511;51.514;7.080;2023-09-30T16:49:36;102033.97;;;14.66;100.00
22688;BME280;11511;51.514;7.080;2023-09-30T16:52:02;102037.31;;;14.43;100.00
22688;BME280;11511;51.514;7.080;2023-09-30T16:54:27;102041.38;;;14.24;100.00
22688;BME280;11511;51.514;7.080;2023-09-30T16:56:52;102051.34;;;14.16;100.00
22688;BME280;11511;51.514;7.080;2023-09-30T16:59:17;102057.88;;;14.03;100.00
22688;BME280;11511;51.514;7.080;2023-09-30T17:01:43;102064.53;;;13.86;100.00
22688;BME280;11511;51.514;7.080;2023-09-30T17:04:10;102065.13;;;13.64;100.00
22688;BME280;11511;51.514;7.080;2023-09-30T17:06:35;102067.97;;;13.56;100.00
22688;BME280;11511;51.514;7.080;2023-09-30T17:09:01;102076.94;;;13.50;100.00
22688;BME280;11511;51.514;7.080;2023-09-30T17:11:26;102074.72;;;13.34;100.00
22688;BME280;11511;51.514;7.080;2023-09-30T17:13:51;102077.53;;;13.26;100.00
22688;BME280;11511;51.514;7.080;2023-09-30T17:16:20;102088.44;;;13.12;100.00
22688;BME280;11511;51.514;7.080;2023-09-30T17:18:47;102093.06;;;13.03;100.00
22688;BME280;11511;51.514;7.080;2023-09-30T17:21:13;102090.72;;;12.89;100.00
22688;BME280;11511;51.514;7.080;2023-09-30T17:23:39;102094.53;;;12.77;100.00
22688;BME280;11511;51.514;7.080;2023-09-30T17:26:05;102102.78;;;12.62;100.00
22688;BME280;11511;51.514;7.080;2023-09-30T17:28:31;102110.03;;;12.52;100.00
22688;BME280;11511;51.514;7.080;2023-09-30T17:31:03;102107.59;;;12.43;100.00
22688;BME280;11511;51.514;7.080;2023-09-30T17:33:30;102110.50;;;12.30;100.00
22688;BME280;11511;51.514;7.080;2023-09-30T17:36:04;102113.31;;;12.22;100.00
22688;BME280;11511;51.514;7.080;2023-09-30T17:38:31;102107.31;;;12.12;100.00
22688;BME280;11511;51.514;7.080;2023-09-30T17:41:00;102111.03;;;12.02;100.00
22688;BME280;11511;51.514;7.080;2023-09-30T17:43:26;102116.38;;;11.99;100.00
22688;BME280;11511;51.514;7.080;2023-09-30T17:45:52;102108.59;;;11.92;100.00
22688;BME280;11511;51.514;7.080;2023-09-30T17:48:17;102107.69;;;11.93;100.00
22688;BME280;11511;51.514;7.080;2023-09-30T17:50:44;102107.63;;;11.96;100.00
22688;BME280;11511;51.514;7.080;2023-09-30T17:53:09;102103.28;;;11.93;100.00
22688;BME280;11511;51.514;7.080;2023-09-30T17:55:38;102108.66;;;11.87;100.00
22688;BME280;11511;51.514;7.080;2023-09-30T17:58:03;102119.34;;;11.79;100.00
22688;BME280;11511;51.514;7.080;2023-09-30T18:00:29;102120.31;;;11.74;100.00
22688;BME280;11511;51.514;7.080;2023-09-30T18:02:54;102131.00;;;11.66;100.00
22688;BME280;11511;51.514;7.080;2023-09-30T18:05:22;102130.31;;;11.53;100.00
22688;BME280;11511;51.514;7.080;2023-09-30T18:07:48;102130.47;;;11.46;100.00
22688;BME280;11511;51.514;7.080;2023-09-30T18:10:14;102114.72;;;11.41;100.00
22688;BME280;11511;51.514;7.080;2023-09-30T18:12:44;102113.84;;;11.41;100.00
22688;BME280;11511;51.514;7.080;2023-09-30T18:15:10;102105.88;;;11.44;100.00
22688;BME280;11511;51.514;7.080;2023-09-30T18:17:37;102117.16;;;11.52;100.00
22688;BME280;11511;51.514;7.080;2023-09-30T18:20:03;102113.78;;;11.45;100.00
22688;BME280;11511;51.514;7.080;2023-09-30T18:22:30;102112.88;;;11.46;100.00
22688;BME280;11511;51.514;7.080;2023-09-30T18:24:55;102116.44;;;11.44;100.00
22688;BME280;11511;51.514;7.080;2023-09-30T18:27:21;102112.94;;;11.42;100.00
22688;BME280;11511;51.514;7.080;2023-09-30T18:29:46;102117.47;;;11.32;100.00
22688;BME280;11511;51.514;7.080;2023-09-30T18:32:11;102117.41;;;11.37;100.00
22688;BME280;11511;51.514;7.080;2023-09-30T18:34:37;102118.25;;;11.39;100.00
22688;BME280;11511;51.514;7.080;2023-09-30T18:37:02;102107.84;;;11.30;100.00
22688;BME280;11511;51.514;7.080;2023-09-30T18:39:27;102121.94;;;11.27;100.00
22688;BME280;11511;51.514;7.080;2023-09-30T18:41:53;102128.09;;;11.28;100.00
22688;BME280;11511;51.514;7.080;2023-09-30T18:44:18;102125.22;;;11.44;100.00
22688;BME280;11511;51.514;7.080;2023-09-30T18:46:44;102127.88;;;11.43;100.00
22688;BME280;11511;51.514;7.080;2023-09-30T18:49:09;102127.22;;;11.27;100.00
22688;BME280;11511;51.514;7.080;2023-09-30T18:51:34;102128.94;;;11.31;100.00
22688;BME280;11511;51.514;7.080;2023-09-30T18:53:59;102139.72;;;11.16;100.00
22688;BME280;11511;51.514;7.080;2023-09-30T18:56:25;102144.25;;;11.05;100.00
22688;BME280;11511;51.514;7.080;2023-09-30T18:58:50;102140.84;;;10.98;100.00
22688;BME280;11511;51.514;7.080;2023-09-30T19:01:15;102140.84;;;10.97;100.00
22688;BME280;11511;51.514;7.080;2023-09-30T19:03:42;102136.50;;;10.94;100.00
22688;BME280;11511;51.514;7.080;2023-09-30T19:06:08;102132.09;;;10.95;100.00
22688;BME280;11511;51.514;7.080;2023-09-30T19:08:33;102135.69;;;10.91;100.00
22688;BME280;11511;51.514;7.080;2023-09-30T19:11:02;102125.25;;;10.81;100.00
22688;BME280;11511;51.514;7.080;2023-09-30T19:13:28;102126.97;;;10.84;100.00
22688;BME280;11511;51.514;7.080;2023-09-30T19:15:53;102124.41;;;10.79;100.00
22688;BME280;11511;51.514;7.080;2023-09-30T19:18:18;102126.25;;;10.71;100.00
22688;BME280;11511;51.514;7.080;2023-09-30T19:20:44;102114.81;;;10.72;100.00
22688;BME280;11511;51.514;7.080;2023-09-30T19:23:10;102116.34;;;10.92;100.00
22688;BME280;11511;51.514;7.080;2023-09-30T19:25:35;102108.94;;;11.18;100.00
22688;BME280;11511;51.514;7.080;2023-09-30T19:28:02;102115.75;;;11.30;100.00
22688;BME280;11511;51.514;7.080;2023-09-30T19:30:27;102117.50;;;11.31;100.00
22688;BME280;11511;51.514;7.080;2023-09-30T19:32:53;102113.22;;;11.22;100.00
22688;BME280;11511;51.514;7.080;2023-09-30T19:35:18;102114.09;;;11.23;100.00
22688;BME280;11511;51.514;7.080;2023-09-30T19:37:44;102123.91;;;11.16;100.00
22688;BME280;11511;51.514;7.080;2023-09-30T19:40:10;102121.06;;;11.27;100.00
22688;BME280;11511;51.514;7.080;2023-09-30T19:42:37;102119.56;;;11.12;100.00
22688;BME280;11511;51.514;7.080;2023-09-30T19:45:06;102124.06;;;11.04;100.00
22688;BME280;11511;51.514;7.080;2023-09-30T19:47:31;102121.44;;;11.02;100.00
22688;BME280;11511;51.514;7.080;2023-09-30T19:49:57;102114.34;;;11.07;100.00
22688;BME280;11511;51.514;7.080;2023-09-30T19:52:22;102112.34;;;11.22;100.00
22688;BME280;11511;51.514;7.080;2023-09-30T19:54:54;102107.88;;;11.27;100.00
22688;BME280;11511;51.514;7.080;2023-09-30T19:57:19;102097.41;;;11.22;100.00
22688;BME280;11511;51.514;7.080;2023-09-30T19:59:44;102092.13;;;11.22;100.00
22688;BME280;11511;51.514;7.080;2023-09-30T20:02:10;102089.56;;;11.21;100.00
22688;BME280;11511;51.514;7.080;2023-09-30T20:04:35;102081.69;;;11.16;100.00
22688;BME280;11511;51.514;7.080;2023-09-30T20:07:02;102089.84;;;10.99;100.00
22688;BME280;11511;51.514;7.080;2023-09-30T20:09:29;102094.09;;;11.11;100.00
22688;BME280;11511;51.514;7.080;2023-09-30T20:11:54;102081.47;;;11.30;100.00
22688;BME280;11511;51.514;7.080;2023-09-30T20:14:23;102092.00;;;11.31;100.00